Woodstock, New York
Current Conditions -  °F | °C
As of 2:10 PM on Tuesday 27 Jan 2015 (Local Time) from KPOU Reporting Station
Haze Haze  
Wind Chill:   Ceiling: 3200
Heat Index: 22°   Visibility: 2mi
Dew Point: 13°   Wind: 17mph
Humidity: 68%   Direction: 350°N
Pressure: 29.7"   Gusts: 25mph
Location:  42.04°N, 74.11°W
Report Text: KPOU 271910Z 35015G22KT 330V030 2SM HZ BKN032 OVC040 M06/M11 A2970 RMK AO2 T10561106
Loading
Personal Weather Stations






























Interactive Weather Map New forecast layout! Learn more

10-Day Weather Forecast

Advertisements
Track Severe Weather on mobile